createdAt,value
2022-12-13T00:00:48.890Z,29.75
2022-12-13T00:03:16.187Z,30.63
2022-12-13T00:05:43.934Z,30.80
2022-12-13T00:08:12.710Z,31.25
2022-12-13T00:10:40.061Z,27.98
2022-12-13T00:13:07.408Z,29.45
2022-12-13T00:15:34.718Z,30.85
2022-12-13T00:18:02.018Z,30.45
2022-12-13T00:20:29.352Z,31.67
2022-12-13T00:22:57.387Z,30.83
2022-12-13T00:25:26.003Z,29.70
2022-12-13T00:27:53.306Z,32.35
2022-12-13T00:30:20.724Z,30.98
2022-12-13T00:32:48.033Z,29.55
2022-12-13T00:35:15.621Z,30.80
2022-12-13T00:37:43.047Z,31.05
2022-12-13T00:40:11.173Z,33.20
2022-12-13T00:42:39.817Z,30.70
2022-12-13T00:45:07.605Z,29.30
2022-12-13T00:47:34.896Z,32.80
2022-12-13T00:50:02.355Z,32.45
2022-12-13T00:52:29.928Z,32.85
2022-12-13T00:54:57.224Z,31.40
2022-12-13T00:57:24.631Z,31.65
2022-12-13T00:59:53.303Z,31.83
2022-12-13T01:02:20.595Z,31.05
2022-12-13T01:04:50.234Z,31.33
2022-12-13T01:07:17.564Z,32.72
2022-12-13T01:09:44.866Z,31.67
2022-12-13T01:12:12.595Z,32.28
2022-12-13T01:14:40.741Z,32.53
2022-12-13T01:17:09.565Z,31.92
2022-12-13T01:19:36.956Z,31.48
2022-12-13T01:22:05.218Z,33.45
2022-12-13T01:24:33.061Z,32.13
2022-12-13T01:27:00.684Z,31.88
2022-12-13T01:29:28.478Z,33.20
2022-12-13T01:31:55.805Z,33.33
2022-12-13T01:34:26.323Z,34.58
2022-12-13T01:36:58.591Z,31.38
2022-12-13T01:39:27.175Z,34.08
2022-12-13T01:41:59.119Z,34.22
2022-12-13T01:44:45.229Z,32.67
2022-12-13T01:47:13.447Z,32.75
2022-12-13T01:49:42.381Z,33.97
2022-12-13T01:52:13.207Z,32.53
2022-12-13T01:54:46.465Z,32.75
2022-12-13T01:57:16.294Z,34.53
2022-12-13T01:59:43.734Z,33.65
2022-12-13T02:02:12.549Z,33.40
2022-12-13T02:04:45.435Z,36.80
2022-12-13T02:07:22.557Z,36.63
2022-12-13T02:09:56.643Z,35.95
2022-12-13T02:12:25.227Z,33.63
2022-12-13T02:14:57.550Z,35.20
2022-12-13T02:17:33.454Z,35.67
2022-12-13T02:20:21.640Z,34.78
2022-12-13T02:22:57.071Z,35.40
2022-12-13T02:25:32.890Z,33.92
2022-12-13T02:28:30.741Z,36.53
2022-12-13T02:30:58.246Z,35.43
2022-12-13T02:33:35.244Z,34.95
2022-12-13T02:36:07.480Z,34.35
2022-12-13T02:38:37.543Z,33.78
2022-12-13T02:41:07.676Z,32.97
2022-12-13T02:43:38.873Z,34.55
2022-12-13T02:46:14.931Z,33.45
2022-12-13T02:48:43.285Z,31.08
2022-12-13T02:51:12.388Z,34.95
2022-12-13T02:53:40.684Z,34.65
2022-12-13T02:56:07.990Z,36.78
2022-12-13T02:58:36.647Z,34.13
2022-12-13T03:01:28.718Z,36.40
2022-12-13T03:04:02.586Z,34.95
2022-12-13T03:06:33.221Z,36.70
2022-12-13T03:09:08.654Z,38.03
2022-12-13T03:14:21.694Z,32.67
2022-12-13T03:16:52.509Z,35.05
2022-12-13T03:19:21.531Z,36.50
2022-12-13T03:21:49.603Z,36.65
2022-12-13T03:24:17.810Z,36.10
2022-12-13T03:26:45.196Z,35.95
2022-12-13T03:29:12.533Z,38.08
2022-12-13T03:31:39.902Z,37.65
2022-12-13T03:34:07.231Z,36.20
2022-12-13T03:36:35.938Z,35.45
2022-12-13T03:39:03.375Z,35.20
2022-12-13T03:41:32.628Z,34.28
2022-12-13T03:44:00.140Z,35.80
2022-12-13T03:46:27.515Z,36.97
2022-12-13T03:48:54.865Z,35.53
2022-12-13T03:51:22.138Z,32.67
2022-12-13T03:53:50.791Z,34.45
2022-12-13T03:56:18.119Z,33.45
2022-12-13T03:58:45.466Z,32.72
2022-12-13T04:01:13.844Z,30.77
2022-12-13T04:03:42.169Z,30.75
2022-12-13T04:06:09.623Z,31.60
2022-12-13T04:08:37.849Z,32.15
2022-12-13T04:11:21.144Z,29.98
2022-12-13T04:13:48.513Z,31.55
2022-12-13T04:16:15.845Z,32.47
2022-12-13T04:18:43.178Z,32.78
2022-12-13T04:21:10.539Z,29.10
2022-12-13T04:23:37.794Z,29.60
2022-12-13T04:26:05.172Z,28.58
2022-12-13T04:28:33.875Z,28.90
2022-12-13T04:31:01.260Z,31.13
2022-12-13T04:33:28.593Z,28.58
2022-12-13T04:35:55.855Z,30.40
2022-12-13T04:38:23.186Z,30.73
2022-12-13T04:40:50.471Z,30.70
2022-12-13T04:43:17.801Z,29.52
2022-12-13T04:45:46.476Z,28.00
2022-12-13T04:48:13.829Z,30.45
2022-12-13T04:51:01.008Z,27.55
2022-12-13T04:53:28.868Z,29.90
2022-12-13T04:55:56.268Z,31.77
2022-12-13T04:58:23.604Z,30.75
2022-12-13T05:00:52.301Z,33.10
2022-12-13T05:03:19.644Z,34.72
2022-12-13T05:05:46.909Z,35.67
2022-12-13T05:08:14.315Z,28.60
2022-12-13T05:10:41.729Z,34.33
2022-12-13T05:13:09.027Z,28.13
2022-12-13T05:15:36.509Z,35.47
2022-12-13T05:18:10.708Z,34.33
2022-12-13T05:20:38.888Z,39.03
2022-12-13T05:23:06.189Z,44.25
2022-12-13T05:25:34.044Z,36.80
2022-12-13T05:28:01.369Z,42.33
2022-12-13T05:30:48.657Z,40.30
2022-12-13T05:33:17.429Z,35.03
2022-12-13T05:35:45.103Z,39.25
2022-12-13T05:38:12.397Z,40.15
2022-12-13T05:40:39.730Z,34.58
2022-12-13T05:43:21.538Z,34.70
2022-12-13T05:45:49.870Z,38.58
2022-12-13T05:48:24.530Z,35.83
2022-12-13T05:50:52.479Z,38.58
2022-12-13T05:53:38.722Z,38.78
2022-12-13T05:56:06.406Z,37.25
2022-12-13T05:58:35.485Z,37.33
2022-12-13T06:01:07.772Z,37.13
2022-12-13T06:03:36.717Z,37.08
2022-12-13T06:06:04.462Z,33.67
2022-12-13T06:08:31.851Z,33.20
2022-12-13T06:11:11.078Z,30.58
2022-12-13T06:13:42.335Z,33.20
2022-12-13T06:16:22.907Z,32.92
2022-12-13T06:19:01.340Z,30.30
2022-12-13T06:21:41.716Z,32.85
2022-12-13T06:24:13.131Z,29.35
2022-12-13T06:26:40.507Z,28.88
2022-12-13T06:29:07.868Z,28.73
2022-12-13T06:31:35.229Z,28.63
2022-12-13T06:34:14.731Z,28.92
2022-12-13T06:36:42.707Z,30.70
2022-12-13T06:39:10.092Z,27.38
2022-12-13T06:41:37.430Z,26.38
2022-12-13T06:44:04.808Z,29.73
2022-12-13T06:46:32.210Z,31.75
2022-12-13T06:48:59.609Z,29.25
2022-12-13T06:51:32.535Z,29.80
2022-12-13T06:54:01.136Z,23.90
2022-12-13T06:56:28.546Z,27.98
2022-12-13T06:59:02.042Z,29.58
2022-12-13T07:01:37.400Z,27.92
2022-12-13T07:04:05.532Z,29.23
2022-12-13T07:06:54.204Z,29.15
2022-12-13T07:09:21.528Z,29.05
2022-12-13T07:11:52.281Z,30.90
2022-12-13T07:14:19.915Z,30.60
2022-12-13T07:16:47.364Z,27.70
2022-12-13T07:19:23.375Z,30.02
2022-12-13T07:21:51.591Z,26.98
2022-12-13T07:24:20.391Z,26.63
2022-12-13T07:26:47.804Z,28.70
2022-12-13T07:29:22.440Z,28.77
2022-12-13T07:31:50.338Z,27.92
2022-12-13T07:34:17.791Z,29.58
2022-12-13T07:36:45.150Z,25.13
2022-12-13T07:39:12.465Z,28.42
2022-12-13T07:41:41.132Z,28.35
2022-12-13T07:44:08.691Z,25.73
2022-12-13T07:46:36.008Z,26.65
2022-12-13T07:49:03.907Z,26.25
2022-12-13T07:51:31.235Z,26.77
2022-12-13T07:53:58.587Z,25.17
2022-12-13T07:56:25.893Z,24.15
2022-12-13T07:58:54.613Z,25.55
2022-12-13T08:01:21.959Z,27.38
2022-12-13T08:03:49.368Z,26.13
2022-12-13T08:06:19.103Z,25.88
2022-12-13T08:08:46.407Z,24.73
2022-12-13T08:11:15.355Z,25.98
2022-12-13T08:13:42.704Z,24.38
2022-12-13T08:16:26.002Z,26.48
2022-12-13T08:19:02.399Z,27.23
2022-12-13T08:24:21.787Z,24.05
2022-12-13T08:26:49.108Z,29.70
2022-12-13T08:29:23.427Z,24.60
2022-12-13T08:32:02.807Z,25.52
2022-12-13T08:34:30.520Z,28.00
2022-12-13T08:37:01.768Z,23.92
2022-12-13T08:39:34.088Z,23.48
2022-12-13T08:42:14.822Z,24.85
2022-12-13T08:44:43.094Z,28.85
2022-12-13T08:47:11.804Z,25.02
2022-12-13T08:49:39.183Z,25.48
2022-12-13T08:52:06.542Z,24.83
2022-12-13T08:54:33.840Z,26.08
2022-12-13T08:57:01.228Z,24.98
2022-12-13T08:59:28.553Z,23.35
2022-12-13T09:01:58.788Z,22.33
2022-12-13T09:04:32.401Z,23.23
2022-12-13T09:07:01.258Z,22.40
2022-12-13T09:09:29.625Z,23.35
2022-12-13T09:11:59.739Z,23.27
2022-12-13T09:14:33.554Z,23.15
2022-12-13T09:17:02.750Z,21.80
2022-12-13T09:19:37.386Z,21.52
2022-12-13T09:22:05.157Z,22.83
2022-12-13T09:24:35.850Z,21.98
2022-12-13T09:27:09.177Z,22.52
2022-12-13T09:29:37.468Z,21.38
2022-12-13T09:32:05.115Z,21.27
2022-12-13T09:34:33.862Z,20.55
2022-12-13T09:37:01.993Z,19.92
2022-12-13T09:39:29.454Z,19.65
2022-12-13T09:42:01.340Z,22.48
2022-12-13T09:44:32.333Z,21.58
2022-12-13T09:47:14.040Z,19.77
2022-12-13T09:49:44.213Z,20.88
2022-12-13T09:52:22.442Z,21.02
2022-12-13T09:54:51.067Z,18.02
2022-12-13T09:57:32.992Z,20.73
2022-12-13T10:00:02.336Z,21.05
2022-12-13T10:02:31.108Z,19.55
2022-12-13T10:05:04.217Z,19.35
2022-12-13T10:07:50.341Z,22.42
2022-12-13T10:10:17.670Z,20.83
2022-12-13T10:12:45.275Z,16.50
2022-12-13T10:15:14.564Z,20.33
2022-12-13T10:17:55.417Z,19.15
2022-12-13T10:20:28.655Z,17.13
2022-12-13T10:23:31.400Z,21.00
2022-12-13T10:25:50.707Z,19.73
2022-12-13T10:28:19.043Z,18.35
2022-12-13T10:30:46.923Z,19.02
2022-12-13T10:33:24.246Z,19.02
2022-12-13T10:36:15.909Z,18.02
2022-12-13T10:38:44.182Z,17.05
2022-12-13T10:41:28.459Z,21.02
2022-12-13T10:44:09.280Z,19.30
2022-12-13T10:46:38.763Z,17.85
2022-12-13T10:49:13.639Z,17.38
2022-12-13T10:51:45.364Z,18.08
2022-12-13T10:54:15.174Z,16.08
2022-12-13T10:56:46.385Z,19.05
2022-12-13T10:59:26.827Z,17.42
2022-12-13T11:01:54.934Z,15.70
2022-12-13T11:04:27.985Z,14.27
2022-12-13T11:06:57.654Z,16.70
2022-12-13T11:09:26.315Z,14.68
2022-12-13T11:11:58.421Z,15.77
2022-12-13T11:14:31.689Z,17.35
2022-12-13T11:17:01.917Z,16.05
2022-12-13T11:19:32.693Z,16.67
2022-12-13T11:22:02.319Z,17.70
2022-12-13T11:24:31.497Z,15.75
2022-12-13T11:26:59.996Z,16.70
2022-12-13T11:29:48.468Z,17.05
2022-12-13T11:32:22.518Z,16.10
2022-12-13T11:34:54.507Z,18.17
2022-12-13T11:37:26.651Z,15.20
2022-12-13T11:40:01.718Z,18.15
2022-12-13T11:42:31.421Z,16.42
2022-12-13T11:45:01.614Z,16.48
2022-12-13T11:47:32.320Z,17.08
2022-12-13T11:50:00.164Z,14.80
2022-12-13T11:52:31.399Z,15.32
2022-12-13T11:55:00.384Z,15.80
2022-12-13T11:57:32.186Z,14.75
2022-12-13T12:00:04.270Z,15.82
2022-12-13T12:02:41.912Z,16.88
2022-12-13T12:05:18.745Z,15.70
2022-12-13T12:08:12.685Z,15.70
2022-12-13T12:10:37.110Z,15.75
2022-12-13T12:13:07.749Z,15.98
2022-12-13T12:15:41.799Z,14.68
2022-12-13T12:18:13.936Z,15.93
2022-12-13T12:20:45.635Z,16.73
2022-12-13T12:23:18.876Z,17.17
2022-12-13T12:25:48.184Z,17.27
2022-12-13T12:28:22.589Z,16.67
2022-12-13T12:33:24.668Z,16.58
2022-12-13T12:35:56.085Z,15.38
2022-12-13T12:38:32.398Z,14.70
2022-12-13T12:41:15.978Z,15.82
2022-12-13T12:43:44.754Z,13.02
2022-12-13T12:46:19.367Z,15.20
2022-12-13T12:49:02.913Z,16.88
2022-12-13T12:51:33.830Z,16.05
2022-12-13T12:54:11.242Z,15.48
2022-12-13T12:56:41.109Z,16.48
2022-12-13T12:59:13.247Z,16.38
2022-12-13T13:01:50.132Z,16.23
2022-12-13T13:04:22.934Z,15.40
2022-12-13T13:06:53.564Z,13.88
2022-12-13T13:09:31.015Z,15.68
2022-12-13T13:11:58.448Z,15.40
2022-12-13T13:14:31.046Z,14.25
2022-12-13T13:16:59.209Z,13.85
2022-12-13T13:19:46.380Z,15.45
2022-12-13T13:22:32.219Z,15.20
2022-12-13T13:25:21.196Z,14.35
2022-12-13T13:27:50.647Z,14.90
2022-12-13T13:30:19.761Z,14.38
2022-12-13T13:32:47.696Z,12.85
2022-12-13T13:35:33.025Z,14.85
2022-12-13T13:38:03.524Z,13.73
2022-12-13T13:40:34.548Z,12.45
2022-12-13T13:43:13.905Z,14.50
2022-12-13T13:45:55.446Z,14.15
2022-12-13T13:48:28.928Z,13.05
2022-12-13T13:51:15.075Z,12.93
2022-12-13T13:54:00.167Z,12.65
2022-12-13T13:56:35.842Z,14.13
2022-12-13T13:59:26.949Z,13.13
2022-12-13T14:02:16.854Z,13.68
2022-12-13T14:05:06.662Z,12.75
2022-12-13T14:07:58.081Z,13.23
2022-12-13T14:10:30.073Z,12.60
2022-12-13T14:13:13.916Z,12.55
2022-12-13T14:15:59.632Z,12.18
2022-12-13T14:18:44.893Z,11.57
2022-12-13T14:21:16.807Z,10.55
2022-12-13T14:23:49.800Z,11.80
2022-12-13T14:26:35.174Z,11.43
2022-12-13T14:29:05.760Z,8.25
2022-12-13T14:31:36.971Z,11.27
2022-12-13T14:34:04.999Z,10.88
2022-12-13T14:36:35.155Z,10.13
2022-12-13T14:39:03.140Z,10.45
2022-12-13T14:41:30.724Z,11.05
2022-12-13T14:44:12.916Z,11.02
2022-12-13T14:46:49.970Z,11.68
2022-12-13T14:49:17.885Z,9.48
2022-12-13T14:51:45.702Z,10.48
2022-12-13T14:54:25.506Z,9.68
2022-12-13T14:56:57.395Z,9.05
2022-12-13T14:59:24.807Z,10.10
2022-12-13T15:01:57.907Z,9.80
2022-12-13T15:04:27.375Z,9.43
2022-12-13T15:07:00.582Z,11.27
2022-12-13T15:09:29.267Z,10.45
2022-12-13T15:12:14.580Z,10.27
2022-12-13T15:14:46.925Z,10.95
2022-12-13T15:17:29.378Z,10.82
2022-12-13T15:19:56.877Z,10.30
2022-12-13T15:22:29.387Z,10.35
2022-12-13T15:24:57.831Z,9.80
2022-12-13T15:27:25.611Z,10.73
2022-12-13T15:29:54.118Z,10.73
2022-12-13T15:32:23.010Z,9.65
2022-12-13T15:34:52.297Z,10.48
2022-12-13T15:37:29.630Z,12.43
2022-12-13T15:39:59.940Z,9.60
2022-12-13T15:42:31.760Z,11.30
2022-12-13T15:45:01.288Z,10.40
2022-12-13T15:47:29.348Z,11.63
2022-12-13T15:49:58.832Z,10.85
2022-12-13T15:52:28.312Z,11.77
2022-12-13T15:54:59.187Z,10.18
2022-12-13T15:57:27.230Z,10.88
2022-12-13T16:00:08.384Z,10.65
2022-12-13T16:02:36.250Z,10.77
2022-12-13T16:05:09.336Z,11.35
2022-12-13T16:07:38.016Z,9.85
2022-12-13T16:10:06.433Z,12.27
2022-12-13T16:12:37.235Z,9.95
2022-12-13T16:15:13.787Z,12.63
2022-12-13T16:17:56.483Z,11.32
2022-12-13T16:20:28.336Z,10.88
2022-12-13T16:22:59.879Z,12.10
2022-12-13T16:25:27.422Z,12.02
2022-12-13T16:27:54.777Z,11.82
2022-12-13T16:30:26.158Z,12.70
2022-12-13T16:33:18.257Z,13.05
2022-12-13T16:35:42.732Z,12.90
2022-12-13T16:38:10.212Z,11.02
2022-12-13T16:40:54.578Z,11.40
2022-12-13T16:43:29.313Z,10.52
2022-12-13T16:46:02.500Z,12.43
2022-12-13T16:48:49.962Z,11.75
2022-12-13T16:51:19.026Z,11.85
2022-12-13T16:53:46.351Z,11.40
2022-12-13T16:56:16.266Z,11.95
2022-12-13T16:58:49.754Z,11.15
2022-12-13T17:01:19.573Z,11.05
2022-12-13T17:03:47.295Z,10.98
2022-12-13T17:06:15.420Z,11.63
2022-12-13T17:08:44.067Z,12.38
2022-12-13T17:11:17.553Z,12.35
2022-12-13T17:13:47.340Z,12.18
2022-12-13T17:16:15.223Z,11.57
2022-12-13T17:18:42.940Z,12.32
2022-12-13T17:21:10.981Z,12.65
2022-12-13T17:23:38.321Z,10.43
2022-12-13T17:26:07.839Z,11.65
2022-12-13T17:28:35.226Z,12.60
2022-12-13T17:31:06.891Z,11.95
2022-12-13T17:33:34.324Z,12.32
2022-12-13T17:36:02.733Z,11.43
2022-12-13T17:38:30.291Z,10.45
2022-12-13T17:40:57.725Z,11.70
2022-12-13T17:43:34.860Z,12.00
2022-12-13T17:46:03.774Z,11.35
2022-12-13T17:48:37.381Z,11.48
2022-12-13T17:51:08.016Z,11.50
2022-12-13T17:53:35.685Z,11.18
2022-12-13T17:56:04.020Z,11.00
2022-12-13T17:58:33.043Z,11.77
2022-12-13T18:01:00.735Z,9.45
2022-12-13T18:03:28.489Z,11.05
2022-12-13T18:05:56.852Z,11.77
2022-12-13T18:08:24.265Z,11.05
2022-12-13T18:11:15.692Z,10.15
2022-12-13T18:13:44.015Z,11.60
2022-12-13T18:16:12.371Z,10.55
2022-12-13T18:18:40.206Z,11.63
2022-12-13T18:21:09.060Z,11.55
2022-12-13T18:23:37.030Z,11.00
2022-12-13T18:26:05.548Z,11.77
2022-12-13T18:28:33.170Z,11.90
2022-12-13T18:31:05.979Z,11.50
2022-12-13T18:33:33.537Z,11.35
2022-12-13T18:36:01.113Z,10.90
2022-12-13T18:38:35.951Z,11.75
2022-12-13T18:41:06.386Z,11.68
2022-12-13T18:43:33.748Z,12.13
2022-12-13T18:46:02.352Z,11.75
2022-12-13T18:48:31.158Z,10.82
2022-12-13T18:50:59.203Z,11.15
2022-12-13T18:53:26.980Z,11.48
2022-12-13T18:56:00.744Z,14.43
2022-12-13T18:58:28.053Z,10.57
2022-12-13T19:00:57.064Z,11.90
2022-12-13T19:03:25.444Z,12.35
2022-12-13T19:05:56.558Z,13.68
2022-12-13T19:08:26.075Z,12.10
2022-12-13T19:10:54.143Z,11.57
2022-12-13T19:13:22.850Z,10.73
2022-12-13T19:15:50.908Z,12.15
2022-12-13T19:18:18.444Z,11.52
2022-12-13T19:20:46.928Z,11.30
2022-12-13T19:23:16.127Z,10.65
2022-12-13T19:25:43.657Z,11.48
2022-12-13T19:28:11.338Z,11.77
2022-12-13T19:30:39.125Z,10.57
2022-12-13T19:33:07.844Z,10.75
2022-12-13T19:35:35.183Z,11.48
2022-12-13T19:38:02.612Z,11.98
2022-12-13T19:40:31.235Z,10.95
2022-12-13T19:42:58.574Z,11.77
2022-12-13T19:45:25.870Z,10.00
2022-12-13T19:47:53.210Z,9.27
2022-12-13T19:50:20.615Z,10.02
2022-12-13T19:52:47.955Z,11.10
2022-12-13T19:55:15.310Z,12.70
2022-12-13T19:57:43.960Z,11.10
2022-12-13T20:00:12.418Z,11.00
2022-12-13T20:02:39.784Z,11.98
2022-12-13T20:05:07.814Z,10.82
2022-12-13T20:07:35.209Z,11.70
2022-12-13T20:10:02.603Z,11.38
2022-12-13T20:12:31.432Z,12.38
2022-12-13T20:15:04.889Z,10.75
2022-12-13T20:17:32.748Z,10.73
2022-12-13T20:20:00.205Z,9.93
2022-12-13T20:22:27.618Z,9.95
2022-12-13T20:24:54.938Z,10.27
2022-12-13T20:27:22.275Z,10.88
2022-12-13T20:29:49.993Z,11.98
2022-12-13T20:32:20.733Z,9.95
2022-12-13T20:34:54.348Z,10.43
2022-12-13T20:37:22.270Z,11.85
2022-12-13T20:39:49.993Z,11.25
2022-12-13T20:42:17.452Z,10.95
2022-12-13T20:44:44.851Z,10.25
2022-12-13T20:47:12.468Z,11.57
2022-12-13T20:49:41.187Z,11.25
2022-12-13T20:52:08.569Z,8.95
2022-12-13T20:54:35.999Z,10.05
2022-12-13T20:57:03.294Z,9.68
2022-12-13T20:59:30.714Z,10.10
2022-12-13T21:01:58.071Z,9.88
2022-12-13T21:04:25.444Z,9.05
2022-12-13T21:06:54.130Z,10.95
2022-12-13T21:09:21.469Z,10.35
2022-12-13T21:11:49.775Z,10.20
2022-12-13T21:14:21.754Z,10.48
2022-12-13T21:16:50.851Z,10.80
2022-12-13T21:19:21.423Z,11.13
2022-12-13T21:21:49.022Z,10.75
2022-12-13T21:24:18.756Z,9.27
2022-12-13T21:26:46.627Z,9.93
2022-12-13T21:29:15.882Z,9.93
2022-12-13T21:31:44.108Z,9.95
2022-12-13T21:34:16.532Z,9.95
2022-12-13T21:36:44.585Z,11.00
2022-12-13T21:39:13.713Z,10.10
2022-12-13T21:41:42.609Z,9.50
2022-12-13T21:44:11.061Z,9.50
2022-12-13T21:47:10.921Z,9.27
2022-12-13T21:49:25.751Z,10.32
2022-12-13T21:51:53.196Z,10.05
2022-12-13T21:54:20.700Z,9.30
2022-12-13T21:57:07.039Z,10.77
2022-12-13T21:59:34.445Z,10.10
2022-12-13T22:02:15.982Z,9.02
2022-12-13T22:04:44.559Z,10.93
2022-12-13T22:07:12.471Z,9.48
2022-12-13T22:09:39.872Z,10.25
2022-12-13T22:12:09.535Z,10.75
2022-12-13T22:14:37.138Z,9.70
2022-12-13T22:17:04.636Z,10.05
2022-12-13T22:19:32.109Z,11.18
2022-12-13T22:21:59.430Z,10.05
2022-12-13T22:24:26.890Z,8.73
2022-12-13T22:26:54.202Z,9.10
2022-12-13T22:29:22.942Z,9.73
2022-12-13T22:31:50.533Z,10.32
2022-12-13T22:34:18.038Z,10.00
2022-12-13T22:36:45.448Z,8.45
2022-12-13T22:39:15.831Z,9.85
2022-12-13T22:41:43.174Z,11.43
2022-12-13T22:44:11.499Z,9.43
2022-12-13T22:46:40.333Z,9.52
2022-12-13T22:49:08.216Z,9.38
2022-12-13T22:51:36.072Z,10.07
2022-12-13T22:54:03.505Z,9.65
2022-12-13T22:56:31.180Z,10.35
2022-12-13T22:59:01.145Z,9.45
2022-12-13T23:01:30.134Z,9.70
2022-12-13T23:03:58.866Z,8.88
2022-12-13T23:06:26.946Z,9.85
2022-12-13T23:08:55.820Z,9.82
2022-12-13T23:11:41.061Z,8.98
2022-12-13T23:14:09.187Z,9.27
2022-12-13T23:16:36.588Z,8.70
2022-12-13T23:19:39.613Z,9.52
2022-12-13T23:21:53.532Z,8.30
2022-12-13T23:24:21.047Z,9.30
2022-12-13T23:26:48.304Z,9.15
2022-12-13T23:29:15.624Z,8.50
2022-12-13T23:31:48.754Z,7.10
2022-12-13T23:34:17.836Z,7.93
2022-12-13T23:36:45.163Z,8.70
2022-12-13T23:39:12.544Z,8.77
2022-12-13T23:41:39.989Z,8.23
2022-12-13T23:44:07.479Z,8.68
2022-12-13T23:46:35.547Z,8.02
2022-12-13T23:49:03.563Z,9.00
2022-12-13T23:51:32.270Z,9.88
2022-12-13T23:53:59.751Z,7.43
2022-12-13T23:56:27.291Z,8.20
2022-12-13T23:58:54.773Z,8.15
